sensor_id;sensor_type;location;lat;lon;timestamp;temperature;humidity
7461;DHT22;6757;52.258;12.840;2022-11-15T00:02:26;4.70;99.90
7461;DHT22;6757;52.258;12.840;2022-11-15T00:04:53;4.70;99.90
7461;DHT22;6757;52.258;12.840;2022-11-15T00:07:20;4.60;99.90
7461;DHT22;6757;52.258;12.840;2022-11-15T00:09:46;4.60;99.90
7461;DHT22;6757;52.258;12.840;2022-11-15T00:12:13;4.60;99.90
7461;DHT22;6757;52.258;12.840;2022-11-15T00:14:40;4.50;99.90
7461;DHT22;6757;52.258;12.840;2022-11-15T00:17:07;4.50;99.90
7461;DHT22;6757;52.258;12.840;2022-11-15T00:19:35;4.40;99.90
7461;DHT22;6757;52.258;12.840;2022-11-15T00:22:02;4.40;99.90
7461;DHT22;6757;52.258;12.840;2022-11-15T00:24:29;4.40;99.90
7461;DHT22;6757;52.258;12.840;2022-11-15T00:26:56;4.30;99.90
7461;DHT22;6757;52.258;12.840;2022-11-15T00:29:23;4.30;99.90
7461;DHT22;6757;52.258;12.840;2022-11-15T00:31:50;4.20;99.90
7461;DHT22;6757;52.258;12.840;2022-11-15T00:34:16;4.20;99.90
7461;DHT22;6757;52.258;12.840;2022-11-15T00:36:45;4.10;99.90
7461;DHT22;6757;52.258;12.840;2022-11-15T00:39:11;4.10;99.90
7461;DHT22;6757;52.258;12.840;2022-11-15T00:41:38;4.00;99.90
7461;DHT22;6757;52.258;12.840;2022-11-15T00:44:05;4.00;99.90
7461;DHT22;6757;52.258;12.840;2022-11-15T00:46:32;4.00;99.90
7461;DHT22;6757;52.258;12.840;2022-11-15T00:48:59;4.00;99.90
7461;DHT22;6757;52.258;12.840;2022-11-15T00:51:26;3.90;99.90
7461;DHT22;6757;52.258;12.840;2022-11-15T00:53:54;3.90;99.90
7461;DHT22;6757;52.258;12.840;2022-11-15T00:56:21;3.90;99.90
7461;DHT22;6757;52.258;12.840;2022-11-15T00:58:48;3.80;99.90
7461;DHT22;6757;52.258;12.840;2022-11-15T01:01:15;3.80;99.90
7461;DHT22;6757;52.258;12.840;2022-11-15T01:03:42;3.80;99.90
7461;DHT22;6757;52.258;12.840;2022-11-15T01:06:09;3.70;99.90
7461;DHT22;6757;52.258;12.840;2022-11-15T01:08:38;3.70;99.90
7461;DHT22;6757;52.258;12.840;2022-11-15T01:11:08;3.70;99.90
7461;DHT22;6757;52.258;12.840;2022-11-15T01:13:37;3.70;99.90
7461;DHT22;6757;52.258;12.840;2022-11-15T01:16:07;3.70;99.90
7461;DHT22;6757;52.258;12.840;2022-11-15T01:18:34;3.60;99.90
7461;DHT22;6757;52.258;12.840;2022-11-15T01:21:05;3.60;99.90
7461;DHT22;6757;52.258;12.840;2022-11-15T01:23:33;3.60;99.90
7461;DHT22;6757;52.258;12.840;2022-11-15T01:26:00;3.60;99.90
7461;DHT22;6757;52.258;12.840;2022-11-15T01:28:31;3.50;99.90
7461;DHT22;6757;52.258;12.840;2022-11-15T01:30:59;3.50;99.90
7461;DHT22;6757;52.258;12.840;2022-11-15T01:33:26;3.50;99.90
7461;DHT22;6757;52.258;12.840;2022-11-15T01:35:53;3.50;99.90
7461;DHT22;6757;52.258;12.840;2022-11-15T01:38:20;3.50;99.90
7461;DHT22;6757;52.258;12.840;2022-11-15T01:40:48;3.40;99.90
7461;DHT22;6757;52.258;12.840;2022-11-15T01:43:23;3.40;99.90
7461;DHT22;6757;52.258;12.840;2022-11-15T01:45:54;3.40;99.90
7461;DHT22;6757;52.258;12.840;2022-11-15T01:48:33;3.40;99.90
7461;DHT22;6757;52.258;12.840;2022-11-15T01:51:02;3.40;99.90
7461;DHT22;6757;52.258;12.840;2022-11-15T01:53:32;3.30;99.90
7461;DHT22;6757;52.258;12.840;2022-11-15T01:56:01;3.30;99.90
7461;DHT22;6757;52.258;12.840;2022-11-15T01:58:29;3.30;99.90
7461;DHT22;6757;52.258;12.840;2022-11-15T02:00:57;3.30;99.90
7461;DHT22;6757;52.258;12.840;2022-11-15T02:03:30;3.30;99.90
7461;DHT22;6757;52.258;12.840;2022-11-15T02:06:02;3.30;99.90
7461;DHT22;6757;52.258;12.840;2022-11-15T02:08:30;3.30;99.90
7461;DHT22;6757;52.258;12.840;2022-11-15T02:10:56;3.30;99.90
7461;DHT22;6757;52.258;12.840;2022-11-15T02:13:23;3.20;99.90
7461;DHT22;6757;52.258;12.840;2022-11-15T02:15:58;3.20;99.90
7461;DHT22;6757;52.258;12.840;2022-11-15T02:18:34;3.20;99.90
7461;DHT22;6757;52.258;12.840;2022-11-15T02:21:13;3.10;99.90
7461;DHT22;6757;52.258;12.840;2022-11-15T02:30:40;3.00;99.90
7461;DHT22;6757;52.258;12.840;2022-11-15T02:33:15;3.00;99.90
7461;DHT22;6757;52.258;12.840;2022-11-15T02:35:57;3.00;99.90
7461;DHT22;6757;52.258;12.840;2022-11-15T02:38:32;3.00;99.90
7461;DHT22;6757;52.258;12.840;2022-11-15T02:41:08;3.00;99.90
7461;DHT22;6757;52.258;12.840;2022-11-15T02:43:40;2.90;99.90
7461;DHT22;6757;52.258;12.840;2022-11-15T02:46:29;2.90;99.90
7461;DHT22;6757;52.258;12.840;2022-11-15T02:49:17;2.90;99.90
7461;DHT22;6757;52.258;12.840;2022-11-15T02:51:47;2.90;99.90
7461;DHT22;6757;52.258;12.840;2022-11-15T02:54:17;2.80;99.90
7461;DHT22;6757;52.258;12.840;2022-11-15T02:56:48;2.80;99.90
7461;DHT22;6757;52.258;12.840;2022-11-15T03:02:56;2.80;99.90
7461;DHT22;6757;52.258;12.840;2022-11-15T03:05:44;2.80;99.90
7461;DHT22;6757;52.258;12.840;2022-11-15T03:08:18;2.80;99.90
7461;DHT22;6757;52.258;12.840;2022-11-15T03:10:58;2.70;99.90
7461;DHT22;6757;52.258;12.840;2022-11-15T03:13:35;2.70;99.90
7461;DHT22;6757;52.258;12.840;2022-11-15T03:16:08;2.70;99.90
7461;DHT22;6757;52.258;12.840;2022-11-15T03:18:40;2.70;99.90
7461;DHT22;6757;52.258;12.840;2022-11-15T03:21:10;2.70;99.90
7461;DHT22;6757;52.258;12.840;2022-11-15T03:23:39;2.70;99.90
7461;DHT22;6757;52.258;12.840;2022-11-15T03:26:09;2.70;99.90
7461;DHT22;6757;52.258;12.840;2022-11-15T03:28:41;2.70;99.90
7461;DHT22;6757;52.258;12.840;2022-11-15T03:31:11;2.60;99.90
7461;DHT22;6757;52.258;12.840;2022-11-15T03:34:00;2.60;99.90
7461;DHT22;6757;52.258;12.840;2022-11-15T03:36:32;2.60;99.90
7461;DHT22;6757;52.258;12.840;2022-11-15T03:39:04;2.60;99.90
7461;DHT22;6757;52.258;12.840;2022-11-15T03:41:38;2.60;99.90
7461;DHT22;6757;52.258;12.840;2022-11-15T03:44:12;2.60;99.90
7461;DHT22;6757;52.258;12.840;2022-11-15T03:46:46;2.50;99.90
7461;DHT22;6757;52.258;12.840;2022-11-15T03:49:19;2.50;99.90
7461;DHT22;6757;52.258;12.840;2022-11-15T03:51:50;2.50;99.90
7461;DHT22;6757;52.258;12.840;2022-11-15T03:54:16;2.50;99.90
7461;DHT22;6757;52.258;12.840;2022-11-15T03:56:43;2.50;99.90
7461;DHT22;6757;52.258;12.840;2022-11-15T03:59:10;2.50;99.90
7461;DHT22;6757;52.258;12.840;2022-11-15T04:01:37;2.50;99.90
7461;DHT22;6757;52.258;12.840;2022-11-15T04:04:04;2.50;99.90
7461;DHT22;6757;52.258;12.840;2022-11-15T04:06:32;2.50;99.90
7461;DHT22;6757;52.258;12.840;2022-11-15T04:09:00;2.50;99.90
7461;DHT22;6757;52.258;12.840;2022-11-15T04:11:27;2.50;99.90
7461;DHT22;6757;52.258;12.840;2022-11-15T04:13:54;2.50;99.90
7461;DHT22;6757;52.258;12.840;2022-11-15T04:16:20;2.60;99.90
7461;DHT22;6757;52.258;12.840;2022-11-15T04:18:47;2.60;99.90
7461;DHT22;6757;52.258;12.840;2022-11-15T04:21:36;2.60;99.90
7461;DHT22;6757;52.258;12.840;2022-11-15T04:24:20;2.60;99.90
7461;DHT22;6757;52.258;12.840;2022-11-15T04:26:48;2.60;99.90
7461;DHT22;6757;52.258;12.840;2022-11-15T04:29:15;2.70;99.90
7461;DHT22;6757;52.258;12.840;2022-11-15T04:31:59;2.60;99.90
7461;DHT22;6757;52.258;12.840;2022-11-15T04:34:26;2.60;99.90
7461;DHT22;6757;52.258;12.840;2022-11-15T04:36:54;2.60;99.90
7461;DHT22;6757;52.258;12.840;2022-11-15T04:39:42;2.60;99.90
7461;DHT22;6757;52.258;12.840;2022-11-15T04:42:09;2.60;99.90
7461;DHT22;6757;52.258;12.840;2022-11-15T04:44:37;2.60;99.90
7461;DHT22;6757;52.258;12.840;2022-11-15T04:47:04;2.60;99.90
7461;DHT22;6757;52.258;12.840;2022-11-15T04:49:31;2.60;99.90
7461;DHT22;6757;52.258;12.840;2022-11-15T04:51:59;2.60;99.90
7461;DHT22;6757;52.258;12.840;2022-11-15T04:54:26;2.50;99.90
7461;DHT22;6757;52.258;12.840;2022-11-15T04:56:53;2.50;99.90
7461;DHT22;6757;52.258;12.840;2022-11-15T04:59:20;2.50;99.90
7461;DHT22;6757;52.258;12.840;2022-11-15T05:01:47;2.50;99.90
7461;DHT22;6757;52.258;12.840;2022-11-15T05:04:14;2.50;99.90
7461;DHT22;6757;52.258;12.840;2022-11-15T05:06:47;2.60;99.90
7461;DHT22;6757;52.258;12.840;2022-11-15T05:09:16;2.60;99.90
7461;DHT22;6757;52.258;12.840;2022-11-15T05:11:43;2.60;99.90
7461;DHT22;6757;52.258;12.840;2022-11-15T05:14:10;2.60;99.90
7461;DHT22;6757;52.258;12.840;2022-11-15T05:16:37;2.60;99.90
7461;DHT22;6757;52.258;12.840;2022-11-15T05:19:05;2.60;99.90
7461;DHT22;6757;52.258;12.840;2022-11-15T05:21:33;2.50;99.90
7461;DHT22;6757;52.258;12.840;2022-11-15T05:24:00;2.50;99.90
7461;DHT22;6757;52.258;12.840;2022-11-15T05:26:28;2.50;99.90
7461;DHT22;6757;52.258;12.840;2022-11-15T05:28:56;2.40;99.90
7461;DHT22;6757;52.258;12.840;2022-11-15T05:31:25;2.40;99.90
7461;DHT22;6757;52.258;12.840;2022-11-15T05:33:53;2.40;99.90
7461;DHT22;6757;52.258;12.840;2022-11-15T05:36:25;2.40;99.90
7461;DHT22;6757;52.258;12.840;2022-11-15T05:38:55;2.30;99.90
7461;DHT22;6757;52.258;12.840;2022-11-15T05:41:25;2.30;99.90
7461;DHT22;6757;52.258;12.840;2022-11-15T05:43:56;2.30;99.90
7461;DHT22;6757;52.258;12.840;2022-11-15T05:46:23;2.30;99.90
7461;DHT22;6757;52.258;12.840;2022-11-15T05:48:51;2.30;99.90
7461;DHT22;6757;52.258;12.840;2022-11-15T05:51:21;2.30;99.90
7461;DHT22;6757;52.258;12.840;2022-11-15T05:53:50;2.30;99.90
7461;DHT22;6757;52.258;12.840;2022-11-15T05:56:18;2.30;99.90
7461;DHT22;6757;52.258;12.840;2022-11-15T05:58:46;2.30;99.90
7461;DHT22;6757;52.258;12.840;2022-11-15T06:01:13;2.20;99.90
7461;DHT22;6757;52.258;12.840;2022-11-15T06:03:40;2.30;99.90
7461;DHT22;6757;52.258;12.840;2022-11-15T06:06:07;2.30;99.90
7461;DHT22;6757;52.258;12.840;2022-11-15T06:08:34;2.20;99.90
7461;DHT22;6757;52.258;12.840;2022-11-15T06:11:05;2.20;99.90
7461;DHT22;6757;52.258;12.840;2022-11-15T06:13:32;2.20;99.90
7461;DHT22;6757;52.258;12.840;2022-11-15T06:16:01;2.20;99.90
7461;DHT22;6757;52.258;12.840;2022-11-15T06:18:28;2.20;99.90
7461;DHT22;6757;52.258;12.840;2022-11-15T06:20:59;2.20;99.90
7461;DHT22;6757;52.258;12.840;2022-11-15T06:23:26;2.20;99.90
7461;DHT22;6757;52.258;12.840;2022-11-15T06:25:57;2.20;99.90
7461;DHT22;6757;52.258;12.840;2022-11-15T06:28:24;2.20;99.90
7461;DHT22;6757;52.258;12.840;2022-11-15T06:30:51;2.20;99.90
7461;DHT22;6757;52.258;12.840;2022-11-15T06:33:19;2.20;99.90
7461;DHT22;6757;52.258;12.840;2022-11-15T06:35:46;2.20;99.90
7461;DHT22;6757;52.258;12.840;2022-11-15T06:38:13;2.20;99.90
7461;DHT22;6757;52.258;12.840;2022-11-15T06:40:40;2.20;99.90
7461;DHT22;6757;52.258;12.840;2022-11-15T06:43:07;2.20;99.90
7461;DHT22;6757;52.258;12.840;2022-11-15T06:45:33;2.20;99.90
7461;DHT22;6757;52.258;12.840;2022-11-15T06:48:01;2.30;99.90
7461;DHT22;6757;52.258;12.840;2022-11-15T06:50:29;2.30;99.90
7461;DHT22;6757;52.258;12.840;2022-11-15T06:53:00;2.30;99.90
7461;DHT22;6757;52.258;12.840;2022-11-15T06:55:28;2.30;99.90
7461;DHT22;6757;52.258;12.840;2022-11-15T06:57:55;2.30;99.90
7461;DHT22;6757;52.258;12.840;2022-11-15T07:00:22;2.30;99.90
7461;DHT22;6757;52.258;12.840;2022-11-15T07:02:49;2.00;99.90
7461;DHT22;6757;52.258;12.840;2022-11-15T07:05:17;2.40;99.90
7461;DHT22;6757;52.258;12.840;2022-11-15T07:07:51;2.40;99.90
7461;DHT22;6757;52.258;12.840;2022-11-15T07:10:19;2.40;99.90
7461;DHT22;6757;52.258;12.840;2022-11-15T07:12:47;2.40;99.90
7461;DHT22;6757;52.258;12.840;2022-11-15T07:15:14;2.40;99.90
7461;DHT22;6757;52.258;12.840;2022-11-15T07:17:41;2.50;99.90
7461;DHT22;6757;52.258;12.840;2022-11-15T07:20:09;2.50;99.90
7461;DHT22;6757;52.258;12.840;2022-11-15T07:22:36;2.50;99.90
7461;DHT22;6757;52.258;12.840;2022-11-15T07:25:05;2.60;99.90
7461;DHT22;6757;52.258;12.840;2022-11-15T07:27:33;2.60;99.90
7461;DHT22;6757;52.258;12.840;2022-11-15T07:30:00;2.60;99.90
7461;DHT22;6757;52.258;12.840;2022-11-15T07:32:27;2.70;99.90
7461;DHT22;6757;52.258;12.840;2022-11-15T07:34:55;2.70;99.90
7461;DHT22;6757;52.258;12.840;2022-11-15T07:37:22;2.80;99.90
7461;DHT22;6757;52.258;12.840;2022-11-15T07:39:49;2.80;99.90
7461;DHT22;6757;52.258;12.840;2022-11-15T07:42:17;2.90;99.90
7461;DHT22;6757;52.258;12.840;2022-11-15T07:45:02;2.90;99.90
7461;DHT22;6757;52.258;12.840;2022-11-15T07:47:30;3.00;99.90
7461;DHT22;6757;52.258;12.840;2022-11-15T07:49:57;3.10;99.90
7461;DHT22;6757;52.258;12.840;2022-11-15T07:52:24;3.10;99.90
7461;DHT22;6757;52.258;12.840;2022-11-15T07:54:51;3.10;99.90
7461;DHT22;6757;52.258;12.840;2022-11-15T07:57:19;3.20;99.90
7461;DHT22;6757;52.258;12.840;2022-11-15T07:59:46;3.30;99.90
7461;DHT22;6757;52.258;12.840;2022-11-15T08:02:13;3.40;99.90
7461;DHT22;6757;52.258;12.840;2022-11-15T08:04:41;3.50;99.90
7461;DHT22;6757;52.258;12.840;2022-11-15T08:07:09;3.50;99.90
7461;DHT22;6757;52.258;12.840;2022-11-15T08:09:36;3.60;99.90
7461;DHT22;6757;52.258;12.840;2022-11-15T08:12:03;3.70;99.90
7461;DHT22;6757;52.258;12.840;2022-11-15T08:14:32;3.80;99.90
7461;DHT22;6757;52.258;12.840;2022-11-15T08:16:59;4.80;99.90
7461;DHT22;6757;52.258;12.840;2022-11-15T08:19:26;4.00;99.90
7461;DHT22;6757;52.258;12.840;2022-11-15T08:21:53;4.10;99.90
7461;DHT22;6757;52.258;12.840;2022-11-15T08:24:20;4.10;99.90
7461;DHT22;6757;52.258;12.840;2022-11-15T08:26:46;4.20;99.90
7461;DHT22;6757;52.258;12.840;2022-11-15T08:29:13;4.30;99.90
7461;DHT22;6757;52.258;12.840;2022-11-15T08:31:42;4.40;99.90
7461;DHT22;6757;52.258;12.840;2022-11-15T08:34:09;4.50;99.90
7461;DHT22;6757;52.258;12.840;2022-11-15T08:36:36;4.50;99.90
7461;DHT22;6757;52.258;12.840;2022-11-15T08:39:03;4.60;99.90
7461;DHT22;6757;52.258;12.840;2022-11-15T08:41:32;4.70;99.90
7461;DHT22;6757;52.258;12.840;2022-11-15T08:44:00;4.80;99.90
7461;DHT22;6757;52.258;12.840;2022-11-15T08:46:27;4.90;99.90
7461;DHT22;6757;52.258;12.840;2022-11-15T08:48:55;5.10;99.90
7461;DHT22;6757;52.258;12.840;2022-11-15T08:51:22;5.20;99.90
7461;DHT22;6757;52.258;12.840;2022-11-15T08:53:49;5.30;99.90
7461;DHT22;6757;52.258;12.840;2022-11-15T08:56:16;5.80;99.90
7461;DHT22;6757;52.258;12.840;2022-11-15T08:58:43;5.50;99.90
7461;DHT22;6757;52.258;12.840;2022-11-15T09:01:16;5.60;99.90
7461;DHT22;6757;52.258;12.840;2022-11-15T09:03:43;5.80;99.90
7461;DHT22;6757;52.258;12.840;2022-11-15T09:06:12;5.90;99.90
7461;DHT22;6757;52.258;12.840;2022-11-15T09:08:39;6.10;99.90
7461;DHT22;6757;52.258;12.840;2022-11-15T09:11:07;6.20;99.90
7461;DHT22;6757;52.258;12.840;2022-11-15T09:13:35;6.30;99.90
7461;DHT22;6757;52.258;12.840;2022-11-15T09:16:04;6.60;99.90
7461;DHT22;6757;52.258;12.840;2022-11-15T09:18:32;6.60;99.90
7461;DHT22;6757;52.258;12.840;2022-11-15T09:20:59;6.70;99.90
7461;DHT22;6757;52.258;12.840;2022-11-15T09:23:29;6.80;99.90
7461;DHT22;6757;52.258;12.840;2022-11-15T09:25:59;7.00;99.90
7461;DHT22;6757;52.258;12.840;2022-11-15T09:28:27;7.10;99.90
7461;DHT22;6757;52.258;12.840;2022-11-15T09:30:56;7.30;99.90
7461;DHT22;6757;52.258;12.840;2022-11-15T09:33:25;7.40;99.90
7461;DHT22;6757;52.258;12.840;2022-11-15T09:35:53;7.60;99.90
7461;DHT22;6757;52.258;12.840;2022-11-15T09:38:20;7.80;99.90
7461;DHT22;6757;52.258;12.840;2022-11-15T09:40:51;7.90;99.90
7461;DHT22;6757;52.258;12.840;2022-11-15T09:43:31;8.00;99.90
7461;DHT22;6757;52.258;12.840;2022-11-15T09:46:08;8.20;99.90
7461;DHT22;6757;52.258;12.840;2022-11-15T09:48:48;8.30;99.90
7461;DHT22;6757;52.258;12.840;2022-11-15T09:51:25;8.40;99.90
7461;DHT22;6757;52.258;12.840;2022-11-15T09:54:00;8.50;99.90
7461;DHT22;6757;52.258;12.840;2022-11-15T09:56:35;8.70;99.90
7461;DHT22;6757;52.258;12.840;2022-11-15T09:59:15;8.80;99.90
7461;DHT22;6757;52.258;12.840;2022-11-15T10:01:55;8.80;99.90
7461;DHT22;6757;52.258;12.840;2022-11-15T10:04:25;9.00;99.90
7461;DHT22;6757;52.258;12.840;2022-11-15T10:07:04;9.20;99.90
7461;DHT22;6757;52.258;12.840;2022-11-15T10:09:42;9.50;99.90
7461;DHT22;6757;52.258;12.840;2022-11-15T10:12:13;9.90;99.90
7461;DHT22;6757;52.258;12.840;2022-11-15T10:14:41;10.10;99.90
7461;DHT22;6757;52.258;12.840;2022-11-15T10:17:37;10.30;99.90
7461;DHT22;6757;52.258;12.840;2022-11-15T10:20:19;10.40;99.90
7461;DHT22;6757;52.258;12.840;2022-11-15T10:22:50;10.60;99.90
7461;DHT22;6757;52.258;12.840;2022-11-15T10:25:22;10.70;99.90
7461;DHT22;6757;52.258;12.840;2022-11-15T10:27:56;10.70;99.90
7461;DHT22;6757;52.258;12.840;2022-11-15T10:30:32;10.80;99.90
7461;DHT22;6757;52.258;12.840;2022-11-15T10:33:11;10.80;99.90
7461;DHT22;6757;52.258;12.840;2022-11-15T10:35:40;10.80;99.90
7461;DHT22;6757;52.258;12.840;2022-11-15T10:38:09;10.90;99.90
7461;DHT22;6757;52.258;12.840;2022-11-15T10:40:39;11.00;99.90
7461;DHT22;6757;52.258;12.840;2022-11-15T10:43:16;11.00;99.90
7461;DHT22;6757;52.258;12.840;2022-11-15T10:45:45;11.20;99.90
7461;DHT22;6757;52.258;12.840;2022-11-15T10:48:30;11.20;99.90
7461;DHT22;6757;52.258;12.840;2022-11-15T10:50:57;11.50;99.90
7461;DHT22;6757;52.258;12.840;2022-11-15T10:53:29;11.70;99.90
7461;DHT22;6757;52.258;12.840;2022-11-15T10:56:00;11.80;99.90
7461;DHT22;6757;52.258;12.840;2022-11-15T10:58:36;11.90;99.90
7461;DHT22;6757;52.258;12.840;2022-11-15T11:01:16;12.00;99.90
7461;DHT22;6757;52.258;12.840;2022-11-15T11:03:45;12.10;99.90
7461;DHT22;6757;52.258;12.840;2022-11-15T11:06:25;12.20;99.90
7461;DHT22;6757;52.258;12.840;2022-11-15T11:08:55;12.30;99.90
7461;DHT22;6757;52.258;12.840;2022-11-15T11:11:23;12.40;99.90
7461;DHT22;6757;52.258;12.840;2022-11-15T11:13:52;12.50;99.90
7461;DHT22;6757;52.258;12.840;2022-11-15T11:19:18;12.80;99.90
7461;DHT22;6757;52.258;12.840;2022-11-15T11:21:57;13.00;99.90
7461;DHT22;6757;52.258;12.840;2022-11-15T11:24:33;13.10;99.90
7461;DHT22;6757;52.258;12.840;2022-11-15T11:27:18;13.40;99.90
7461;DHT22;6757;52.258;12.840;2022-11-15T11:30:02;13.50;99.90
7461;DHT22;6757;52.258;12.840;2022-11-15T11:32:45;13.70;99.90
7461;DHT22;6757;52.258;12.840;2022-11-15T11:35:20;13.90;99.90
7461;DHT22;6757;52.258;12.840;2022-11-15T11:37:53;14.00;99.90
7461;DHT22;6757;52.258;12.840;2022-11-15T11:40:29;14.10;99.90
7461;DHT22;6757;52.258;12.840;2022-11-15T11:43:04;14.20;99.90
7461;DHT22;6757;52.258;12.840;2022-11-15T11:45:58;14.10;99.90
7461;DHT22;6757;52.258;12.840;2022-11-15T11:48:46;14.30;99.90
7461;DHT22;6757;52.258;12.840;2022-11-15T11:51:20;14.40;99.90
7461;DHT22;6757;52.258;12.840;2022-11-15T11:53:55;14.40;99.90
7461;DHT22;6757;52.258;12.840;2022-11-15T11:56:27;14.50;99.90
7461;DHT22;6757;52.258;12.840;2022-11-15T11:59:00;14.60;99.90
7461;DHT22;6757;52.258;12.840;2022-11-15T12:01:34;14.70;99.90
7461;DHT22;6757;52.258;12.840;2022-11-15T12:04:09;14.70;99.90
7461;DHT22;6757;52.258;12.840;2022-11-15T12:06:45;14.80;99.90
7461;DHT22;6757;52.258;12.840;2022-11-15T12:09:17;15.00;99.90
7461;DHT22;6757;52.258;12.840;2022-11-15T12:11:52;15.30;99.90
7461;DHT22;6757;52.258;12.840;2022-11-15T12:14:28;15.60;99.90
7461;DHT22;6757;52.258;12.840;2022-11-15T12:17:00;15.80;99.90
7461;DHT22;6757;52.258;12.840;2022-11-15T12:19:28;16.10;99.90
7461;DHT22;6757;52.258;12.840;2022-11-15T12:22:00;16.40;99.90
7461;DHT22;6757;52.258;12.840;2022-11-15T12:24:34;16.60;99.90
7461;DHT22;6757;52.258;12.840;2022-11-15T12:27:06;16.80;99.90
7461;DHT22;6757;52.258;12.840;2022-11-15T12:29:38;17.00;99.90
7461;DHT22;6757;52.258;12.840;2022-11-15T12:32:26;17.30;99.90
7461;DHT22;6757;52.258;12.840;2022-11-15T12:34:55;17.50;99.90
7461;DHT22;6757;52.258;12.840;2022-11-15T12:37:34;17.60;99.90
7461;DHT22;6757;52.258;12.840;2022-11-15T12:40:22;17.70;99.90
7461;DHT22;6757;52.258;12.840;2022-11-15T12:46:13;17.70;99.90
7461;DHT22;6757;52.258;12.840;2022-11-15T12:48:54;17.90;99.90
7461;DHT22;6757;52.258;12.840;2022-11-15T12:54:56;18.50;99.90
7461;DHT22;6757;52.258;12.840;2022-11-15T12:57:38;18.90;99.90
7461;DHT22;6757;52.258;12.840;2022-11-15T13:03:28;19.40;99.90
7461;DHT22;6757;52.258;12.840;2022-11-15T13:06:02;19.70;99.90
7461;DHT22;6757;52.258;12.840;2022-11-15T13:08:50;19.90;99.90
7461;DHT22;6757;52.258;12.840;2022-11-15T13:11:53;20.10;99.90
7461;DHT22;6757;52.258;12.840;2022-11-15T13:14:43;20.10;99.90
7461;DHT22;6757;52.258;12.840;2022-11-15T13:17:30;20.30;99.90
7461;DHT22;6757;52.258;12.840;2022-11-15T13:20:17;20.50;99.90
7461;DHT22;6757;52.258;12.840;2022-11-15T13:22:49;20.60;99.90
7461;DHT22;6757;52.258;12.840;2022-11-15T13:25:40;20.50;99.90
7461;DHT22;6757;52.258;12.840;2022-11-15T13:28:21;20.40;99.90
7461;DHT22;6757;52.258;12.840;2022-11-15T13:30:53;20.40;99.90
7461;DHT22;6757;52.258;12.840;2022-11-15T13:33:23;20.40;99.90
7461;DHT22;6757;52.258;12.840;2022-11-15T13:36:02;20.50;99.90
7461;DHT22;6757;52.258;12.840;2022-11-15T13:38:34;20.40;99.90
7461;DHT22;6757;52.258;12.840;2022-11-15T13:41:17;20.20;99.90
7461;DHT22;6757;52.258;12.840;2022-11-15T13:43:46;20.10;99.90
7461;DHT22;6757;52.258;12.840;2022-11-15T13:46:16;19.90;99.90
7461;DHT22;6757;52.258;12.840;2022-11-15T13:48:45;19.70;99.90
7461;DHT22;6757;52.258;12.840;2022-11-15T13:51:17;19.30;99.90
7461;DHT22;6757;52.258;12.840;2022-11-15T13:53:50;19.00;99.90
7461;DHT22;6757;52.258;12.840;2022-11-15T13:56:20;18.60;99.90
7461;DHT22;6757;52.258;12.840;2022-11-15T13:58:48;18.20;99.90
7461;DHT22;6757;52.258;12.840;2022-11-15T14:01:17;17.80;99.90
7461;DHT22;6757;52.258;12.840;2022-11-15T14:03:52;17.50;99.90
7461;DHT22;6757;52.258;12.840;2022-11-15T14:06:23;17.10;99.90
7461;DHT22;6757;52.258;12.840;2022-11-15T14:09:28;16.90;99.90
7461;DHT22;6757;52.258;12.840;2022-11-15T14:11:58;16.60;99.90
7461;DHT22;6757;52.258;12.840;2022-11-15T14:14:26;16.20;99.90
7461;DHT22;6757;52.258;12.840;2022-11-15T14:16:55;16.00;99.90
7461;DHT22;6757;52.258;12.840;2022-11-15T14:19:37;15.80;99.90
7461;DHT22;6757;52.258;12.840;2022-11-15T14:22:10;15.50;99.90
7461;DHT22;6757;52.258;12.840;2022-11-15T14:24:39;15.30;99.90
7461;DHT22;6757;52.258;12.840;2022-11-15T14:27:19;15.10;99.90
7461;DHT22;6757;52.258;12.840;2022-11-15T14:29:48;14.80;99.90
7461;DHT22;6757;52.258;12.840;2022-11-15T14:32:17;14.60;99.90
7461;DHT22;6757;52.258;12.840;2022-11-15T14:34:45;14.40;99.90
7461;DHT22;6757;52.258;12.840;2022-11-15T14:37:20;14.20;99.90
7461;DHT22;6757;52.258;12.840;2022-11-15T14:39:48;14.90;99.90
7461;DHT22;6757;52.258;12.840;2022-11-15T14:42:17;13.90;99.90
7461;DHT22;6757;52.258;12.840;2022-11-15T14:44:45;13.70;99.90
7461;DHT22;6757;52.258;12.840;2022-11-15T14:47:12;13.50;99.90
7461;DHT22;6757;52.258;12.840;2022-11-15T14:49:40;13.30;99.90
7461;DHT22;6757;52.258;12.840;2022-11-15T14:52:31;13.20;99.90
7461;DHT22;6757;52.258;12.840;2022-11-15T14:55:01;13.00;99.90
7461;DHT22;6757;52.258;12.840;2022-11-15T14:57:30;12.90;99.90
7461;DHT22;6757;52.258;12.840;2022-11-15T14:59:57;12.70;99.90
7461;DHT22;6757;52.258;12.840;2022-11-15T15:02:26;12.60;99.90
7461;DHT22;6757;52.258;12.840;2022-11-15T15:04:53;12.40;99.90
7461;DHT22;6757;52.258;12.840;2022-11-15T15:07:21;12.30;99.90
7461;DHT22;6757;52.258;12.840;2022-11-15T15:09:48;12.10;99.90
7461;DHT22;6757;52.258;12.840;2022-11-15T15:12:17;12.00;99.90
7461;DHT22;6757;52.258;12.840;2022-11-15T15:14:49;11.90;99.90
7461;DHT22;6757;52.258;12.840;2022-11-15T15:17:17;11.70;99.90
7461;DHT22;6757;52.258;12.840;2022-11-15T15:19:44;11.60;99.90
7461;DHT22;6757;52.258;12.840;2022-11-15T15:22:14;11.50;99.90
7461;DHT22;6757;52.258;12.840;2022-11-15T15:24:42;11.40;99.90
7461;DHT22;6757;52.258;12.840;2022-11-15T15:27:09;11.50;99.90
7461;DHT22;6757;52.258;12.840;2022-11-15T15:29:36;11.50;99.90
7461;DHT22;6757;52.258;12.840;2022-11-15T15:32:05;11.50;99.90
7461;DHT22;6757;52.258;12.840;2022-11-15T15:34:32;11.40;99.90
7461;DHT22;6757;52.258;12.840;2022-11-15T15:37:08;11.30;99.90
7461;DHT22;6757;52.258;12.840;2022-11-15T15:39:35;11.20;99.90
7461;DHT22;6757;52.258;12.840;2022-11-15T15:42:02;11.10;99.90
7461;DHT22;6757;52.258;12.840;2022-11-15T15:44:30;10.90;99.90
7461;DHT22;6757;52.258;12.840;2022-11-15T15:46:57;10.80;99.90
7461;DHT22;6757;52.258;12.840;2022-11-15T15:49:25;10.60;99.90
7461;DHT22;6757;52.258;12.840;2022-11-15T15:51:52;10.50;99.90
7461;DHT22;6757;52.258;12.840;2022-11-15T15:54:19;10.30;99.90
7461;DHT22;6757;52.258;12.840;2022-11-15T15:56:46;10.20;99.90
7461;DHT22;6757;52.258;12.840;2022-11-15T15:59:13;10.10;99.90
7461;DHT22;6757;52.258;12.840;2022-11-15T16:01:40;10.00;99.90
7461;DHT22;6757;52.258;12.840;2022-11-15T16:04:07;9.80;99.90
7461;DHT22;6757;52.258;12.840;2022-11-15T16:06:37;9.70;99.90
7461;DHT22;6757;52.258;12.840;2022-11-15T16:09:12;9.60;99.90
7461;DHT22;6757;52.258;12.840;2022-11-15T16:11:40;9.50;99.90
7461;DHT22;6757;52.258;12.840;2022-11-15T16:14:07;9.40;99.90
7461;DHT22;6757;52.258;12.840;2022-11-15T16:16:34;9.30;99.90
7461;DHT22;6757;52.258;12.840;2022-11-15T16:19:02;9.30;99.90
7461;DHT22;6757;52.258;12.840;2022-11-15T16:21:30;9.20;99.90
7461;DHT22;6757;52.258;12.840;2022-11-15T16:23:58;9.10;99.90
7461;DHT22;6757;52.258;12.840;2022-11-15T16:26:27;8.90;99.90
7461;DHT22;6757;52.258;12.840;2022-11-15T16:28:54;8.90;99.90
7461;DHT22;6757;52.258;12.840;2022-11-15T16:31:21;8.80;99.90
7461;DHT22;6757;52.258;12.840;2022-11-15T16:33:48;8.80;99.90
7461;DHT22;6757;52.258;12.840;2022-11-15T16:36:20;8.70;99.90
7461;DHT22;6757;52.258;12.840;2022-11-15T16:38:48;8.80;99.90
7461;DHT22;6757;52.258;12.840;2022-11-15T16:41:18;8.80;99.90
7461;DHT22;6757;52.258;12.840;2022-11-15T16:43:45;8.70;99.90
7461;DHT22;6757;52.258;12.840;2022-11-15T16:46:16;8.70;99.90